Time;durP1;ratioP1;P1;durP2;ratioP2;P2;SDS_P1;SDS_P2;PMS_P1;PMS_P2;Temp;Humidity;BMP_temperature;BMP_pressure;BME280_temperature;BME280_humidity;BME280_pressure;Samples;Min_cycle;Max_cycle;Signal;HPM_P1;HPM_P2
2022/07/01 00:00:33;;;;;;;5.15;4.75;;;;;;;;;;2082354;28;20168;-52
2022/07/01 00:01:34;;;;;;;5.68;4.70;;;;;;;;;;2081917;28;20665;-50
2022/07/01 00:02:34;;;;;;;6.45;4.82;;;;;;;;;;2082260;28;20173;-53
2022/07/01 00:03:34;;;;;;;4.95;4.55;;;;;;;;;;2081890;28;20586;-54
2022/07/01 00:04:35;;;;;;;4.22;3.80;;;;;;;;;;2081966;28;20172;-54
2022/07/01 00:05:54;;;;;;;9.50;5.28;;;;;;;;;;2082362;28;20216;-51
2022/07/01 00:06:54;;;;;;;11.65;5.20;;;;;;;;;;2081888;28;20161;-49
2022/07/01 00:07:55;;;;;;;5.03;4.18;;;;;;;;;;2081669;28;20192;-50
2022/07/01 00:08:56;;;;;;;10.40;5.75;;;;;;;;;;2081803;28;20184;-51
2022/07/01 00:09:56;;;;;;;7.65;4.85;;;;;;;;;;2079693;28;20223;-52
2022/07/01 00:10:57;;;;;;;5.82;4.78;;;;;;;;;;2082388;28;20172;-52
2022/07/01 00:11:57;;;;;;;7.22;4.65;;;;;;;;;;2082288;28;20645;-50
2022/07/01 00:12:57;;;;;;;7.60;4.68;;;;;;;;;;2082233;28;20164;-51
2022/07/01 00:13:58;;;;;;;7.40;4.35;;;;;;;;;;2081411;28;20180;-51
2022/07/01 00:14:58;;;;;;;4.60;4.22;;;;;;;;;;2081809;28;20172;-50
2022/07/01 00:15:59;;;;;;;4.72;4.32;;;;;;;;;;2082163;28;20172;-54
2022/07/01 00:16:59;;;;;;;5.00;4.60;;;;;;;;;;2087702;28;20187;-52
2022/07/01 00:18:00;;;;;;;8.20;5.05;;;;;;;;;;2090036;28;20263;-55
2022/07/01 00:19:00;;;;;;;4.90;4.45;;;;;;;;;;2090678;28;20172;-55
2022/07/01 00:20:02;;;;;;;5.18;4.68;;;;;;;;;;2086561;28;20180;-54
2022/07/01 00:21:02;;;;;;;7.38;4.78;;;;;;;;;;2082387;28;20218;-52
2022/07/01 00:22:03;;;;;;;4.07;3.78;;;;;;;;;;2081786;28;20596;-50
2022/07/01 00:23:03;;;;;;;4.63;4.22;;;;;;;;;;2082527;28;20180;-53
2022/07/01 00:24:05;;;;;;;5.05;4.38;;;;;;;;;;2081053;28;20168;-54
2022/07/01 00:25:06;;;;;;;5.18;4.30;;;;;;;;;;2082422;28;20255;-51
2022/07/01 00:26:06;;;;;;;4.47;4.03;;;;;;;;;;2081793;28;20234;-54
2022/07/01 00:27:07;;;;;;;5.25;4.30;;;;;;;;;;2082567;28;20588;-54
2022/07/01 00:28:07;;;;;;;4.90;4.38;;;;;;;;;;2082283;28;20188;-54
2022/07/01 00:29:07;;;;;;;5.03;4.70;;;;;;;;;;2082390;28;20208;-54
2022/07/01 00:30:09;;;;;;;6.47;5.30;;;;;;;;;;2082291;28;20173;-53
2022/07/01 00:31:09;;;;;;;5.63;4.45;;;;;;;;;;2082427;28;20165;-54
2022/07/01 00:32:10;;;;;;;8.85;4.05;;;;;;;;;;2082842;28;20172;-53
2022/07/01 00:33:10;;;;;;;5.30;4.40;;;;;;;;;;2082928;28;20192;-50
2022/07/01 00:34:10;;;;;;;6.57;3.65;;;;;;;;;;2081206;28;20168;-53
2022/07/01 00:35:11;;;;;;;4.60;3.97;;;;;;;;;;2082296;28;20683;-51
2022/07/01 00:36:11;;;;;;;4.38;4.05;;;;;;;;;;2082432;28;20209;-55
2022/07/01 00:37:11;;;;;;;6.65;3.95;;;;;;;;;;2082433;28;20207;-53
2022/07/01 00:38:12;;;;;;;5.18;3.63;;;;;;;;;;2082170;28;20191;-56
2022/07/01 00:39:12;;;;;;;4.00;3.70;;;;;;;;;;2082002;28;20180;-51
2022/07/01 00:40:12;;;;;;;6.70;3.50;;;;;;;;;;2082438;28;20173;-54
2022/07/01 00:41:13;;;;;;;4.30;3.90;;;;;;;;;;2081960;28;20168;-52
2022/07/01 00:42:13;;;;;;;5.03;3.70;;;;;;;;;;2081942;28;20183;-51
2022/07/01 00:43:13;;;;;;;5.90;4.50;;;;;;;;;;2081924;28;20271;-54
2022/07/01 00:44:20;;;;;;;4.10;3.80;;;;;;;;;;2080981;28;20184;-51
2022/07/01 00:45:20;;;;;;;4.95;4.15;;;;;;;;;;2081662;28;20176;-51
2022/07/01 00:46:21;;;;;;;5.18;3.67;;;;;;;;;;2081979;28;20171;-52
2022/07/01 00:47:22;;;;;;;4.80;3.80;;;;;;;;;;2081819;28;20256;-52
2022/07/01 00:48:22;;;;;;;4.72;4.22;;;;;;;;;;2081887;28;20192;-53
2022/07/01 00:49:23;;;;;;;4.55;3.85;;;;;;;;;;2081885;28;20586;-49
2022/07/01 00:50:23;;;;;;;5.55;4.18;;;;;;;;;;2081795;28;20171;-54
2022/07/01 00:51:24;;;;;;;4.32;3.85;;;;;;;;;;2081699;28;20644;-53
2022/07/01 00:52:24;;;;;;;5.82;4.50;;;;;;;;;;2081755;28;20200;-55
2022/07/01 00:53:25;;;;;;;4.25;3.85;;;;;;;;;;2081724;28;20160;-52
2022/07/01 00:54:26;;;;;;;4.18;3.85;;;;;;;;;;2080720;28;20716;-51
2022/07/01 00:55:26;;;;;;;4.38;3.97;;;;;;;;;;2081085;28;20176;-52
2022/07/01 00:56:27;;;;;;;5.68;4.30;;;;;;;;;;2081113;28;20168;-54
2022/07/01 00:57:31;;;;;;;4.07;3.78;;;;;;;;;;2081582;28;20176;-51
2022/07/01 00:58:31;;;;;;;5.75;4.13;;;;;;;;;;2080813;28;20607;-52
2022/07/01 00:59:34;;;;;;;4.95;4.32;;;;;;;;;;2080757;28;20183;-51
2022/07/01 01:00:35;;;;;;;5.75;4.00;;;;;;;;;;2081889;28;20172;-52
2022/07/01 01:01:36;;;;;;;3.67;3.38;;;;;;;;;;2081747;28;20160;-51
2022/07/01 01:02:36;;;;;;;5.70;4.15;;;;;;;;;;2079901;28;20176;-54
2022/07/01 01:03:36;;;;;;;4.50;3.88;;;;;;;;;;2081133;28;20172;-52
2022/07/01 01:04:37;;;;;;;7.53;4.63;;;;;;;;;;2080588;28;20208;-57
2022/07/01 01:05:37;;;;;;;8.93;4.75;;;;;;;;;;2081669;28;20200;-52
2022/07/01 01:06:38;;;;;;;6.80;4.22;;;;;;;;;;2081873;28;20180;-54
2022/07/01 01:07:38;;;;;;;5.53;4.78;;;;;;;;;;2081840;28;20165;-54
2022/07/01 01:08:39;;;;;;;4.68;4.28;;;;;;;;;;2081720;28;20711;-51
2022/07/01 01:09:40;;;;;;;4.55;3.97;;;;;;;;;;2079635;28;20260;-53
2022/07/01 01:10:40;;;;;;;4.93;4.35;;;;;;;;;;2081851;28;20155;-53
2022/07/01 01:11:40;;;;;;;3.95;3.60;;;;;;;;;;2081004;28;20184;-50
2022/07/01 01:12:41;;;;;;;7.30;4.50;;;;;;;;;;2080981;28;20172;-51
2022/07/01 01:13:42;;;;;;;5.65;4.10;;;;;;;;;;2081449;28;20544;-54
2022/07/01 01:14:46;;;;;;;4.20;3.90;;;;;;;;;;2080660;28;20168;-52
2022/07/01 01:15:46;;;;;;;4.72;4.15;;;;;;;;;;2081665;28;20184;-53
2022/07/01 01:16:47;;;;;;;5.43;4.05;;;;;;;;;;2086242;28;20194;-54
2022/07/01 01:17:47;;;;;;;5.28;3.55;;;;;;;;;;2089755;28;20175;-51
2022/07/01 01:18:49;;;;;;;4.50;3.72;;;;;;;;;;2082394;28;20273;-56
2022/07/01 01:19:49;;;;;;;4.32;3.85;;;;;;;;;;2081483;28;20254;-53
2022/07/01 01:20:51;;;;;;;4.10;3.80;;;;;;;;;;2081541;28;20184;-55
2022/07/01 01:21:53;;;;;;;4.97;4.40;;;;;;;;;;2080794;28;20282;-56
2022/07/01 01:22:53;;;;;;;3.90;3.60;;;;;;;;;;2080884;28;20675;-53
2022/07/01 01:23:53;;;;;;;4.22;3.92;;;;;;;;;;2081127;28;20180;-50
2022/07/01 01:24:54;;;;;;;3.80;3.45;;;;;;;;;;2081137;28;20163;-52
2022/07/01 01:25:54;;;;;;;5.80;4.25;;;;;;;;;;2081398;28;20238;-51
2022/07/01 01:26:54;;;;;;;8.15;4.53;;;;;;;;;;2080540;28;20175;-53
2022/07/01 01:27:55;;;;;;;7.18;4.63;;;;;;;;;;2080905;28;20664;-56
2022/07/01 01:28:55;;;;;;;5.63;5.10;;;;;;;;;;2081004;28;20275;-49
2022/07/01 01:29:56;;;;;;;5.78;5.30;;;;;;;;;;2081545;28;20171;-54
2022/07/01 01:30:56;;;;;;;6.40;5.55;;;;;;;;;;2081233;28;20203;-54
2022/07/01 01:31:56;;;;;;;5.78;5.28;;;;;;;;;;2081449;28;20176;-55
2022/07/01 01:32:57;;;;;;;6.00;5.50;;;;;;;;;;2081518;28;20195;-55
2022/07/01 01:33:57;;;;;;;6.38;5.88;;;;;;;;;;2081040;28;20186;-55
2022/07/01 01:34:57;;;;;;;5.97;5.45;;;;;;;;;;2080999;28;20161;-54
2022/07/01 01:35:58;;;;;;;6.13;5.53;;;;;;;;;;2081425;28;20267;-48
2022/07/01 01:36:59;;;;;;;5.57;5.10;;;;;;;;;;2081325;28;20176;-51
2022/07/01 01:38:00;;;;;;;6.85;5.55;;;;;;;;;;2081392;28;20199;-53
2022/07/01 01:40:26;;;;;;;6.43;4.95;;;;;;;;;;2078852;28;20302;-53
2022/07/01 01:41:27;;;;;;;8.07;4.85;;;;;;;;;;2080928;28;20168;-53
2022/07/01 01:42:27;;;;;;;5.30;4.88;;;;;;;;;;2081475;28;20183;-54
2022/07/01 01:43:27;;;;;;;5.93;5.00;;;;;;;;;;2081443;28;20183;-54
2022/07/01 01:44:28;;;;;;;5.30;4.80;;;;;;;;;;2078074;28;20585;-52
2022/07/01 01:45:28;;;;;;;5.35;4.88;;;;;;;;;;2081291;28;20176;-52
2022/07/01 01:46:30;;;;;;;6.05;4.80;;;;;;;;;;2080488;28;20187;-51
2022/07/01 01:47:30;;;;;;;5.68;4.95;;;;;;;;;;2080905;28;20226;-52
2022/07/01 01:48:31;;;;;;;6.78;4.88;;;;;;;;;;2080795;28;20196;-52
2022/07/01 01:49:31;;;;;;;5.90;5.13;;;;;;;;;;2080715;28;20175;-50
2022/07/01 01:50:31;;;;;;;5.90;4.97;;;;;;;;;;2081320;28;20204;-55
2022/07/01 01:51:32;;;;;;;7.75;5.05;;;;;;;;;;2081364;28;20327;-54
2022/07/01 01:52:32;;;;;;;8.45;5.28;;;;;;;;;;2081403;28;20548;-50
2022/07/01 01:53:33;;;;;;;4.43;4.07;;;;;;;;;;2081430;28;20172;-55
2022/07/01 01:54:36;;;;;;;5.32;4.93;;;;;;;;;;2078524;28;20179;-55
2022/07/01 01:55:36;;;;;;;5.25;4.75;;;;;;;;;;2081255;28;20172;-54
2022/07/01 01:56:37;;;;;;;4.97;4.60;;;;;;;;;;2081219;28;20174;-54
2022/07/01 01:57:37;;;;;;;5.78;5.00;;;;;;;;;;2081406;28;20635;-54
2022/07/01 01:58:42;;;;;;;6.03;4.30;;;;;;;;;;2081339;28;20195;-55
2022/07/01 01:59:58;;;;;;;5.32;4.65;;;;;;;;;;2081114;28;20167;-52
2022/07/01 02:00:58;;;;;;;5.35;4.85;;;;;;;;;;2081410;28;20212;-55
2022/07/01 02:01:58;;;;;;;4.97;4.57;;;;;;;;;;2081185;28;20168;-52
2022/07/01 02:02:59;;;;;;;4.25;3.95;;;;;;;;;;2081105;28;20200;-53
2022/07/01 02:03:59;;;;;;;5.43;5.03;;;;;;;;;;2080829;28;20191;-58
2022/07/01 02:05:00;;;;;;;5.50;5.00;;;;;;;;;;2080919;28;20179;-49
2022/07/01 02:06:00;;;;;;;6.07;4.93;;;;;;;;;;2081540;28;20211;-49
2022/07/01 02:07:00;;;;;;;5.63;5.05;;;;;;;;;;2081442;28;20255;-53
2022/07/01 02:08:01;;;;;;;5.07;4.63;;;;;;;;;;2081258;28;20179;-54
2022/07/01 02:09:02;;;;;;;5.88;4.93;;;;;;;;;;2081242;28;20524;-56
2022/07/01 02:10:03;;;;;;;5.10;4.63;;;;;;;;;;2081229;28;20392;-48
2022/07/01 02:11:03;;;;;;;5.43;4.90;;;;;;;;;;2081453;28;20243;-52
2022/07/01 02:12:04;;;;;;;5.00;4.60;;;;;;;;;;2081349;28;20176;-54
2022/07/01 02:13:04;;;;;;;5.50;5.00;;;;;;;;;;2081311;28;20600;-53
2022/07/01 02:14:04;;;;;;;5.10;4.60;;;;;;;;;;2080707;28;20172;-52
2022/07/01 02:15:05;;;;;;;5.68;4.97;;;;;;;;;;2080676;28;20187;-54
2022/07/01 02:16:05;;;;;;;4.90;4.50;;;;;;;;;;2080730;28;20259;-53
2022/07/01 02:17:06;;;;;;;4.95;4.50;;;;;;;;;;2080829;28;20637;-54
2022/07/01 02:18:06;;;;;;;8.60;5.22;;;;;;;;;;2080620;28;20175;-54
2022/07/01 02:19:06;;;;;;;4.88;4.47;;;;;;;;;;2081502;28;20176;-53
2022/07/01 02:20:07;;;;;;;4.88;4.38;;;;;;;;;;2080532;28;20180;-53
2022/07/01 02:21:07;;;;;;;5.63;5.05;;;;;;;;;;2072474;28;20631;-56
2022/07/01 02:22:08;;;;;;;6.35;4.65;;;;;;;;;;2080709;28;20187;-55
2022/07/01 02:23:09;;;;;;;5.18;4.78;;;;;;;;;;2081570;28;20169;-54
2022/07/01 02:24:09;;;;;;;6.28;5.25;;;;;;;;;;2080438;28;20168;-52
2022/07/01 02:25:09;;;;;;;6.53;5.38;;;;;;;;;;2081075;28;20184;-55
2022/07/01 02:26:09;;;;;;;5.40;5.00;;;;;;;;;;2081265;28;20196;-56
2022/07/01 02:27:12;;;;;;;6.72;4.97;;;;;;;;;;2081393;28;20176;-56
2022/07/01 02:28:12;;;;;;;5.70;5.20;;;;;;;;;;2081225;28;20567;-55
2022/07/01 02:29:13;;;;;;;6.82;6.22;;;;;;;;;;2081430;28;20172;-53
2022/07/01 02:30:13;;;;;;;6.13;5.60;;;;;;;;;;2081103;28;20184;-49
2022/07/01 02:31:13;;;;;;;7.75;5.35;;;;;;;;;;2081395;28;20164;-50
2022/07/01 02:32:14;;;;;;;6.28;5.68;;;;;;;;;;2080740;28;20180;-52
2022/07/01 02:33:14;;;;;;;6.15;5.55;;;;;;;;;;2080827;28;20608;-54
2022/07/01 02:34:14;;;;;;;6.72;6.13;;;;;;;;;;2080465;28;20211;-54
2022/07/01 02:35:15;;;;;;;6.53;6.00;;;;;;;;;;2081065;28;20160;-48
2022/07/01 02:36:15;;;;;;;6.32;5.82;;;;;;;;;;2081133;28;20223;-50
2022/07/01 02:37:15;;;;;;;6.75;6.05;;;;;;;;;;2081464;28;20184;-54
2022/07/01 02:38:16;;;;;;;6.65;6.15;;;;;;;;;;2081327;28;20211;-49
2022/07/01 02:39:16;;;;;;;7.30;6.53;;;;;;;;;;2081508;28;20160;-54
2022/07/01 02:40:16;;;;;;;6.85;6.18;;;;;;;;;;2081516;28;20168;-50
2022/07/01 02:41:16;;;;;;;7.35;5.88;;;;;;;;;;2082706;28;20559;-56
2022/07/01 02:42:23;;;;;;;7.00;6.40;;;;;;;;;;2082921;28;20640;-54
2022/07/01 02:43:23;;;;;;;6.95;6.30;;;;;;;;;;2083074;28;20164;-51
2022/07/01 02:44:23;;;;;;;7.22;6.53;;;;;;;;;;2081598;28;20177;-49
2022/07/01 02:45:25;;;;;;;7.28;6.68;;;;;;;;;;2082511;28;20571;-50
2022/07/01 02:46:25;;;;;;;7.97;7.13;;;;;;;;;;2081888;28;20183;-56
2022/07/01 02:47:30;;;;;;;7.82;6.60;;;;;;;;;;2082272;28;20191;-53
2022/07/01 02:48:30;;;;;;;7.97;7.28;;;;;;;;;;2082703;28;20194;-55
2022/07/01 02:49:30;;;;;;;7.63;6.80;;;;;;;;;;2082006;28;20172;-52
2022/07/01 02:50:31;;;;;;;7.85;7.15;;;;;;;;;;2081545;28;20515;-51
2022/07/01 02:51:31;;;;;;;7.47;6.82;;;;;;;;;;2082850;28;20173;-56
2022/07/01 02:52:34;;;;;;;8.18;7.30;;;;;;;;;;2082329;28;20247;-54
2022/07/01 02:53:34;;;;;;;8.48;7.63;;;;;;;;;;2082285;28;20198;-51
2022/07/01 02:54:34;;;;;;;8.32;7.32;;;;;;;;;;2081477;28;20181;-55
2022/07/01 02:55:34;;;;;;;9.25;8.27;;;;;;;;;;2082625;28;20226;-54
2022/07/01 02:56:35;;;;;;;9.77;8.63;;;;;;;;;;2082230;28;20202;-55
2022/07/01 02:57:36;;;;;;;8.80;8.07;;;;;;;;;;2082713;28;20195;-57
2022/07/01 02:58:36;;;;;;;8.52;7.72;;;;;;;;;;2082460;28;20561;-54
2022/07/01 02:59:36;;;;;;;11.45;8.75;;;;;;;;;;2075842;28;20173;-55
2022/07/01 03:00:37;;;;;;;9.63;8.50;;;;;;;;;;2072700;28;20195;-55
2022/07/01 03:01:37;;;;;;;9.65;8.70;;;;;;;;;;2074416;28;20637;-54
2022/07/01 03:02:37;;;;;;;10.25;9.25;;;;;;;;;;2074787;28;20249;-53
2022/07/01 03:03:38;;;;;;;9.52;8.63;;;;;;;;;;2074780;28;20181;-56
2022/07/01 03:04:38;;;;;;;9.48;8.57;;;;;;;;;;2079131;28;20175;-53
2022/07/01 03:05:38;;;;;;;9.02;8.13;;;;;;;;;;2081916;28;20630;-52
2022/07/01 03:06:38;;;;;;;10.48;9.10;;;;;;;;;;2082550;28;20182;-55
2022/07/01 03:07:39;;;;;;;10.43;8.93;;;;;;;;;;2082287;28;20283;-53
2022/07/01 03:08:39;;;;;;;9.63;8.70;;;;;;;;;;2102310;22;20407;-57
2022/07/01 03:09:40;;;;;;;10.18;9.23;;;;;;;;;;2079121;28;20267;-55
2022/07/01 03:10:40;;;;;;;9.18;8.25;;;;;;;;;;2076690;28;20696;-54
2022/07/01 03:11:40;;;;;;;12.48;9.65;;;;;;;;;;2082224;28;20243;-56
2022/07/01 03:12:41;;;;;;;10.23;9.23;;;;;;;;;;2081612;28;20567;-54
2022/07/01 03:13:41;;;;;;;10.52;8.75;;;;;;;;;;2081743;28;20188;-55
2022/07/01 03:14:41;;;;;;;10.77;9.68;;;;;;;;;;2081134;28;20169;-53
2022/07/01 03:15:42;;;;;;;10.40;9.32;;;;;;;;;;2081856;28;20234;-53
2022/07/01 03:16:42;;;;;;;10.43;8.98;;;;;;;;;;2082428;28;20167;-53
2022/07/01 03:17:44;;;;;;;10.20;9.18;;;;;;;;;;2081311;28;20204;-53
2022/07/01 03:18:45;;;;;;;10.50;9.40;;;;;;;;;;2081600;28;20696;-56
2022/07/01 03:19:45;;;;;;;10.82;9.82;;;;;;;;;;2082124;28;20178;-54
2022/07/01 03:20:46;;;;;;;13.02;10.15;;;;;;;;;;2081268;28;20173;-54
2022/07/01 03:21:46;;;;;;;9.95;8.93;;;;;;;;;;2082550;28;20214;-56
2022/07/01 03:22:47;;;;;;;12.35;9.57;;;;;;;;;;2082345;28;20175;-53
2022/07/01 03:23:47;;;;;;;12.15;10.93;;;;;;;;;;2082593;28;20176;-55
2022/07/01 03:24:48;;;;;;;11.77;10.68;;;;;;;;;;2081476;28;20164;-56
2022/07/01 03:25:48;;;;;;;11.95;10.63;;;;;;;;;;2082180;28;20301;-54
2022/07/01 03:26:49;;;;;;;11.60;10.40;;;;;;;;;;2082262;28;20618;-54
2022/07/01 03:27:49;;;;;;;12.57;10.88;;;;;;;;;;2082407;28;20183;-53
2022/07/01 03:28:49;;;;;;;12.68;10.75;;;;;;;;;;2082236;28;20200;-55
2022/07/01 03:29:50;;;;;;;13.32;11.27;;;;;;;;;;2081838;28;20160;-53
2022/07/01 03:30:50;;;;;;;12.32;11.02;;;;;;;;;;2075005;28;20567;-55
2022/07/01 03:31:50;;;;;;;14.20;10.85;;;;;;;;;;2081123;28;20176;-53
2022/07/01 03:32:51;;;;;;;13.30;11.88;;;;;;;;;;2082518;28;20594;-53
2022/07/01 03:33:51;;;;;;;12.68;11.38;;;;;;;;;;2082064;28;20177;-55
2022/07/01 03:34:52;;;;;;;13.77;12.00;;;;;;;;;;2081889;28;20176;-56
2022/07/01 03:35:52;;;;;;;13.57;11.82;;;;;;;;;;2082396;28;20191;-53
2022/07/01 03:36:53;;;;;;;13.20;11.82;;;;;;;;;;2082250;28;20490;-53
2022/07/01 03:37:54;;;;;;;16.80;12.77;;;;;;;;;;2082287;28;20176;-53
2022/07/01 03:38:54;;;;;;;13.95;12.45;;;;;;;;;;2082383;28;20199;-53
2022/07/01 03:39:55;;;;;;;15.82;12.35;;;;;;;;;;2081506;28;20279;-52
2022/07/01 03:40:55;;;;;;;14.18;11.80;;;;;;;;;;2082360;28;20294;-54
2022/07/01 03:41:55;;;;;;;15.07;13.38;;;;;;;;;;2082368;28;20200;-53
2022/07/01 03:42:56;;;;;;;14.55;13.18;;;;;;;;;;2080637;28;20699;-55
2022/07/01 03:43:56;;;;;;;14.00;12.50;;;;;;;;;;2081932;28;20188;-54
2022/07/01 03:44:56;;;;;;;13.40;12.02;;;;;;;;;;2081381;28;20191;-55
2022/07/01 03:45:57;;;;;;;14.80;13.20;;;;;;;;;;2082081;28;20196;-56
2022/07/01 03:46:57;;;;;;;14.27;12.80;;;;;;;;;;2082349;28;20160;-55
2022/07/01 03:47:58;;;;;;;14.27;12.88;;;;;;;;;;2082385;28;20172;-56
2022/07/01 03:48:58;;;;;;;14.73;12.90;;;;;;;;;;2082248;28;20677;-53
2022/07/01 03:49:58;;;;;;;16.10;12.65;;;;;;;;;;2082142;28;20259;-53
2022/07/01 03:50:59;;;;;;;13.93;11.60;;;;;;;;;;2082627;28;20181;-54
2022/07/01 03:51:59;;;;;;;14.77;13.18;;;;;;;;;;2081928;28;20191;-55
2022/07/01 03:54:30;;;;;;;14.93;13.20;;;;;;;;;;2080625;28;20180;-52
2022/07/01 03:55:30;;;;;;;16.98;14.73;;;;;;;;;;2081725;28;20223;-52
2022/07/01 03:56:30;;;;;;;14.40;12.88;;;;;;;;;;2078276;28;20176;-54
2022/07/01 03:57:31;;;;;;;15.18;13.63;;;;;;;;;;2073747;28;20736;-53
2022/07/01 03:58:31;;;;;;;17.60;14.07;;;;;;;;;;2074003;28;20180;-54
2022/07/01 03:59:33;;;;;;;17.33;14.55;;;;;;;;;;2078720;28;20199;-54
2022/07/01 04:00:35;;;;;;;16.02;13.25;;;;;;;;;;2082340;28;20190;-55
2022/07/01 04:01:35;;;;;;;17.80;14.05;;;;;;;;;;2081782;28;20211;-56
2022/07/01 04:02:36;;;;;;;17.63;14.95;;;;;;;;;;2081755;28;20538;-53
2022/07/01 04:03:36;;;;;;;17.70;15.40;;;;;;;;;;2082190;28;20219;-54
2022/07/01 04:04:36;;;;;;;16.38;14.68;;;;;;;;;;2081090;28;20170;-56
2022/07/01 04:05:37;;;;;;;16.83;14.85;;;;;;;;;;2082331;28;20200;-52
2022/07/01 04:06:37;;;;;;;18.92;14.85;;;;;;;;;;2082196;28;20168;-52
2022/07/01 04:07:38;;;;;;;17.23;14.90;;;;;;;;;;2082321;28;20176;-54
2022/07/01 04:08:38;;;;;;;16.20;14.52;;;;;;;;;;2081901;28;20636;-53
2022/07/01 04:09:38;;;;;;;18.42;15.85;;;;;;;;;;2081659;28;20161;-57
2022/07/01 04:10:40;;;;;;;16.92;15.23;;;;;;;;;;2081604;28;20256;-55
2022/07/01 04:11:41;;;;;;;18.48;15.57;;;;;;;;;;2082232;28;20172;-53
2022/07/01 04:12:41;;;;;;;18.25;16.00;;;;;;;;;;2081411;28;20168;-54
2022/07/01 04:13:49;;;;;;;17.30;15.40;;;;;;;;;;2081676;28;20545;-53
2022/07/01 04:14:50;;;;;;;21.48;16.58;;;;;;;;;;2081001;28;20217;-52
2022/07/01 04:15:51;;;;;;;20.88;16.70;;;;;;;;;;2082266;28;20633;-56
2022/07/01 04:16:51;;;;;;;18.48;16.48;;;;;;;;;;2082129;28;20172;-53
2022/07/01 04:17:52;;;;;;;18.70;16.35;;;;;;;;;;2081547;28;20176;-53
2022/07/01 04:18:52;;;;;;;22.52;17.65;;;;;;;;;;2082166;28;20192;-56
2022/07/01 04:19:53;;;;;;;21.20;16.17;;;;;;;;;;2082278;28;20231;-55
2022/07/01 04:23:33;;;;;;;22.40;16.17;;;;;;;;;;2082395;28;20256;-52
2022/07/01 04:24:33;;;;;;;23.45;18.08;;;;;;;;;;2081326;28;20171;-56
2022/07/01 04:25:34;;;;;;;22.05;16.65;;;;;;;;;;2079382;28;20552;-52
2022/07/01 04:26:35;;;;;;;22.42;16.90;;;;;;;;;;2082765;28;20177;-55
2022/07/01 04:27:35;;;;;;;23.70;18.55;;;;;;;;;;2087485;28;20181;-56
2022/07/01 04:28:35;;;;;;;23.73;18.67;;;;;;;;;;2083713;28;20184;-56
2022/07/01 04:29:36;;;;;;;22.08;18.08;;;;;;;;;;2091830;28;20179;-54
2022/07/01 04:30:36;;;;;;;25.52;19.63;;;;;;;;;;2091906;28;20163;-54
2022/07/01 04:31:37;;;;;;;22.70;18.30;;;;;;;;;;2074418;28;20293;-55
2022/07/01 04:32:37;;;;;;;25.98;18.70;;;;;;;;;;2074347;28;20182;-58
2022/07/01 04:33:38;;;;;;;22.63;18.45;;;;;;;;;;2090495;28;20160;-52
2022/07/01 04:34:38;;;;;;;22.25;18.35;;;;;;;;;;2089602;28;20171;-54
2022/07/01 04:35:39;;;;;;;24.58;19.20;;;;;;;;;;2088093;28;20612;-55
2022/07/01 04:36:39;;;;;;;25.02;20.00;;;;;;;;;;2082796;28;20196;-54
2022/07/01 04:37:40;;;;;;;26.77;19.50;;;;;;;;;;2073797;28;20180;-55
2022/07/01 04:38:41;;;;;;;22.63;18.33;;;;;;;;;;2073846;28;20185;-54
2022/07/01 04:39:42;;;;;;;23.55;18.83;;;;;;;;;;2073293;28;20200;-52
2022/07/01 04:41:58;;;;;;;25.52;19.27;;;;;;;;;;2084715;28;20167;-56
2022/07/01 04:42:03;;;;;;;23.45;19.42;;;;;;;;;;2073715;28;20207;-54
2022/07/01 04:43:03;;;;;;;26.42;20.50;;;;;;;;;;2073481;28;20180;-54
2022/07/01 04:44:04;;;;;;;22.85;18.33;;;;;;;;;;2080754;28;20187;-55
2022/07/01 04:45:04;;;;;;;24.10;20.17;;;;;;;;;;2082134;28;20167;-56
2022/07/01 04:46:04;;;;;;;26.08;20.40;;;;;;;;;;2081966;28;20214;-54
2022/07/01 04:47:05;;;;;;;28.10;21.30;;;;;;;;;;2082091;28;20160;-54
2022/07/01 04:48:05;;;;;;;29.05;21.55;;;;;;;;;;2081979;28;20664;-53
2022/07/01 04:49:06;;;;;;;27.42;20.13;;;;;;;;;;2083315;28;20241;-56
2022/07/01 04:50:07;;;;;;;25.27;19.85;;;;;;;;;;2083991;28;20168;-55
2022/07/01 04:51:07;;;;;;;23.95;20.27;;;;;;;;;;2084278;28;20641;-56
2022/07/01 04:52:08;;;;;;;31.15;20.58;;;;;;;;;;2083947;28;20164;-56
2022/07/01 04:53:08;;;;;;;26.80;20.75;;;;;;;;;;2082646;28;20176;-57
2022/07/01 04:54:08;;;;;;;24.63;20.08;;;;;;;;;;2082122;28;20240;-56
2022/07/01 04:55:09;;;;;;;27.08;20.98;;;;;;;;;;2083835;28;20176;-57
2022/07/01 04:56:09;;;;;;;27.65;22.08;;;;;;;;;;2085196;28;20183;-57
2022/07/01 04:57:09;;;;;;;28.55;21.52;;;;;;;;;;2084946;28;20195;-56
2022/07/01 04:58:10;;;;;;;28.45;22.00;;;;;;;;;;2086280;28;20344;-57
2022/07/01 04:59:11;;;;;;;25.33;20.45;;;;;;;;;;2084686;28;20699;-57
2022/07/01 05:00:11;;;;;;;27.08;22.05;;;;;;;;;;2082479;28;20173;-57
2022/07/01 05:01:12;;;;;;;29.65;22.23;;;;;;;;;;2082456;28;20176;-54
2022/07/01 05:02:12;;;;;;;28.67;20.92;;;;;;;;;;2082079;28;20168;-55
2022/07/01 05:03:12;;;;;;;26.55;20.70;;;;;;;;;;2081823;28;20196;-56
2022/07/01 05:04:13;;;;;;;27.23;22.52;;;;;;;;;;2081976;28;20761;-55
2022/07/01 05:05:14;;;;;;;28.80;22.55;;;;;;;;;;2082670;28;20645;-55
2022/07/01 05:06:14;;;;;;;23.20;20.70;;;;;;;;;;2081576;28;20615;-56
2022/07/01 05:07:29;;;;;;;25.52;21.17;;;;;;;;;;2082154;28;20164;-56
2022/07/01 05:08:30;;;;;;;27.10;21.42;;;;;;;;;;2081163;28;20172;-55
2022/07/01 05:09:30;;;;;;;27.17;21.83;;;;;;;;;;2080941;28;20263;-56
2022/07/01 05:10:31;;;;;;;31.77;22.70;;;;;;;;;;2081222;28;20804;-56
2022/07/01 05:11:31;;;;;;;27.55;22.23;;;;;;;;;;2081157;28;20179;-56
2022/07/01 05:12:32;;;;;;;28.75;23.13;;;;;;;;;;2080062;28;20234;-55
2022/07/01 05:13:33;;;;;;;28.50;22.45;;;;;;;;;;2080903;28;20184;-57
2022/07/01 05:14:34;;;;;;;28.10;22.00;;;;;;;;;;2080169;28;20629;-56
2022/07/01 05:15:35;;;;;;;29.05;22.63;;;;;;;;;;2081962;28;20238;-55
2022/07/01 05:16:35;;;;;;;29.63;22.63;;;;;;;;;;2075109;28;20200;-57
2022/07/01 05:22:51;;;;;;;31.75;23.75;;;;;;;;;;2076359;28;20972;-54
2022/07/01 05:23:51;;;;;;;31.23;23.48;;;;;;;;;;2080511;28;20180;-55
2022/07/01 05:24:51;;;;;;;26.88;23.02;;;;;;;;;;2080215;28;20176;-56
2022/07/01 05:25:52;;;;;;;28.58;22.35;;;;;;;;;;2080562;28;20204;-53
2022/07/01 05:26:52;;;;;;;28.25;22.83;;;;;;;;;;2080485;28;20187;-55
2022/07/01 05:27:54;;;;;;;32.78;23.85;;;;;;;;;;2080796;28;20168;-55
2022/07/01 05:28:55;;;;;;;29.80;23.15;;;;;;;;;;2079824;28;20272;-55
2022/07/01 05:29:55;;;;;;;27.42;23.90;;;;;;;;;;2080142;28;20265;-58
2022/07/01 05:30:55;;;;;;;30.60;23.83;;;;;;;;;;2079908;28;20192;-56
2022/07/01 05:31:56;;;;;;;27.85;24.27;;;;;;;;;;2079985;28;20172;-55
2022/07/01 05:32:56;;;;;;;27.85;23.45;;;;;;;;;;2081127;28;20298;-58
2022/07/01 05:33:56;;;;;;;26.67;23.25;;;;;;;;;;2080804;28;20192;-56
2022/07/01 05:34:57;;;;;;;29.27;24.35;;;;;;;;;;2080814;28;20199;-56
2022/07/01 05:35:57;;;;;;;30.48;23.05;;;;;;;;;;2081343;28;20179;-54
2022/07/01 05:36:57;;;;;;;26.52;22.33;;;;;;;;;;2081460;28;20198;-55
2022/07/01 05:37:58;;;;;;;28.80;24.45;;;;;;;;;;2081860;28;20211;-56
2022/07/01 05:38:59;;;;;;;26.58;23.25;;;;;;;;;;2081662;28;20186;-56
2022/07/01 05:39:59;;;;;;;32.97;24.35;;;;;;;;;;2081621;28;20179;-57
2022/07/01 05:41:00;;;;;;;29.27;24.05;;;;;;;;;;2081428;28;20172;-56
2022/07/01 05:42:00;;;;;;;27.92;23.00;;;;;;;;;;2081596;28;20191;-57
2022/07/01 05:43:00;;;;;;;25.83;22.92;;;;;;;;;;2081765;28;20221;-56
2022/07/01 05:44:01;;;;;;;28.60;23.17;;;;;;;;;;2080362;28;20164;-55
2022/07/01 05:45:01;;;;;;;27.48;22.05;;;;;;;;;;2081818;28;20180;-56
2022/07/01 05:46:01;;;;;;;28.10;22.33;;;;;;;;;;2081488;28;20184;-56
2022/07/01 05:47:02;;;;;;;29.33;23.50;;;;;;;;;;2081640;28;20192;-54
2022/07/01 05:48:02;;;;;;;26.42;22.00;;;;;;;;;;2081391;28;20187;-56
2022/07/01 05:49:03;;;;;;;29.13;24.70;;;;;;;;;;2081620;28;20184;-55
2022/07/01 05:50:03;;;;;;;27.25;22.83;;;;;;;;;;2081563;28;20167;-52
2022/07/01 05:51:04;;;;;;;26.63;23.02;;;;;;;;;;2080949;28;20218;-55
2022/07/01 05:52:04;;;;;;;28.17;23.48;;;;;;;;;;2081010;28;20641;-54
2022/07/01 05:53:05;;;;;;;28.05;22.48;;;;;;;;;;2081800;28;20194;-53
2022/07/01 05:54:05;;;;;;;25.63;22.83;;;;;;;;;;2079666;28;20172;-53
2022/07/01 05:55:06;;;;;;;29.15;23.48;;;;;;;;;;2072969;28;20258;-55
2022/07/01 05:56:07;;;;;;;31.13;23.63;;;;;;;;;;2080883;28;20188;-56
2022/07/01 05:57:07;;;;;;;27.67;23.15;;;;;;;;;;2073926;28;20176;-57
2022/07/01 05:58:09;;;;;;;27.95;23.88;;;;;;;;;;2073782;28;20227;-56
2022/07/01 05:59:10;;;;;;;27.73;22.35;;;;;;;;;;2074132;28;20555;-57
2022/07/01 06:00:10;;;;;;;31.17;23.80;;;;;;;;;;2074314;28;20183;-57
2022/07/01 06:01:14;;;;;;;29.52;24.17;;;;;;;;;;2073546;28;20161;-58
2022/07/01 06:02:14;;;;;;;30.73;23.77;;;;;;;;;;2073386;28;20189;-57
2022/07/01 06:03:15;;;;;;;29.95;23.95;;;;;;;;;;2074443;28;20224;-58
2022/07/01 06:04:15;;;;;;;28.65;24.15;;;;;;;;;;2073629;28;20204;-57
2022/07/01 06:05:16;;;;;;;31.90;24.77;;;;;;;;;;2081773;28;20204;-58
2022/07/01 06:06:18;;;;;;;28.92;24.02;;;;;;;;;;2082100;28;20216;-57
2022/07/01 06:07:18;;;;;;;32.35;25.75;;;;;;;;;;2080502;28;20227;-58
2022/07/01 06:08:18;;;;;;;32.20;25.38;;;;;;;;;;2081801;28;20172;-56
2022/07/01 06:09:19;;;;;;;31.70;26.00;;;;;;;;;;2082090;28;20180;-57
2022/07/01 06:10:19;;;;;;;32.95;25.83;;;;;;;;;;2081494;28;20156;-57